sensor_id;sensor_type;location;lat;lon;timestamp;P1;durP1;ratioP1;P2;durP2;ratioP2
36411;SDS011;22445;52.100;5.176;2022-10-31T00:00:57;13.43;;;9.20;;
36411;SDS011;22445;52.100;5.176;2022-10-31T00:03:23;10.02;;;6.95;;
36411;SDS011;22445;52.100;5.176;2022-10-31T00:05:49;13.57;;;8.40;;
36411;SDS011;22445;52.100;5.176;2022-10-31T00:08:15;12.50;;;9.77;;
36411;SDS011;22445;52.100;5.176;2022-10-31T00:10:42;17.70;;;9.38;;
36411;SDS011;22445;52.100;5.176;2022-10-31T00:13:08;12.05;;;9.38;;
36411;SDS011;22445;52.100;5.176;2022-10-31T00:15:34;14.13;;;10.00;;
36411;SDS011;22445;52.100;5.176;2022-10-31T00:18:01;13.75;;;10.50;;
36411;SDS011;22445;52.100;5.176;2022-10-31T00:20:27;21.25;;;11.65;;
36411;SDS011;22445;52.100;5.176;2022-10-31T00:22:52;15.93;;;11.57;;
36411;SDS011;22445;52.100;5.176;2022-10-31T00:25:18;15.30;;;11.40;;
36411;SDS011;22445;52.100;5.176;2022-10-31T00:27:45;14.77;;;9.65;;
36411;SDS011;22445;52.100;5.176;2022-10-31T00:30:11;17.23;;;11.80;;
36411;SDS011;22445;52.100;5.176;2022-10-31T00:32:37;13.88;;;10.77;;
36411;SDS011;22445;52.100;5.176;2022-10-31T00:35:02;14.82;;;10.63;;
36411;SDS011;22445;52.100;5.176;2022-10-31T00:37:28;16.88;;;11.43;;
36411;SDS011;22445;52.100;5.176;2022-10-31T00:39:53;13.48;;;10.50;;
36411;SDS011;22445;52.100;5.176;2022-10-31T00:42:19;14.65;;;10.68;;
36411;SDS011;22445;52.100;5.176;2022-10-31T00:44:44;13.23;;;10.20;;
36411;SDS011;22445;52.100;5.176;2022-10-31T00:47:10;14.80;;;9.57;;
36411;SDS011;22445;52.100;5.176;2022-10-31T00:49:35;14.25;;;10.45;;
36411;SDS011;22445;52.100;5.176;2022-10-31T00:52:01;12.68;;;8.23;;
36411;SDS011;22445;52.100;5.176;2022-10-31T00:54:26;13.43;;;8.95;;
36411;SDS011;22445;52.100;5.176;2022-10-31T00:56:52;14.40;;;9.13;;
36411;SDS011;22445;52.100;5.176;2022-10-31T00:59:17;11.38;;;8.27;;
36411;SDS011;22445;52.100;5.176;2022-10-31T01:01:43;12.45;;;8.82;;
36411;SDS011;22445;52.100;5.176;2022-10-31T01:04:08;17.15;;;8.52;;
36411;SDS011;22445;52.100;5.176;2022-10-31T01:06:33;15.73;;;9.65;;
36411;SDS011;22445;52.100;5.176;2022-10-31T01:08:59;13.45;;;9.35;;
36411;SDS011;22445;52.100;5.176;2022-10-31T01:11:24;13.98;;;8.82;;
36411;SDS011;22445;52.100;5.176;2022-10-31T01:13:51;11.57;;;8.70;;
36411;SDS011;22445;52.100;5.176;2022-10-31T01:16:18;15.80;;;10.10;;
36411;SDS011;22445;52.100;5.176;2022-10-31T01:18:45;14.27;;;10.13;;
36411;SDS011;22445;52.100;5.176;2022-10-31T01:21:13;10.45;;;8.60;;
36411;SDS011;22445;52.100;5.176;2022-10-31T01:23:41;9.63;;;8.27;;
36411;SDS011;22445;52.100;5.176;2022-10-31T01:26:08;12.13;;;9.63;;
36411;SDS011;22445;52.100;5.176;2022-10-31T01:28:36;13.85;;;9.45;;
36411;SDS011;22445;52.100;5.176;2022-10-31T01:31:03;11.60;;;9.45;;
36411;SDS011;22445;52.100;5.176;2022-10-31T01:33:30;11.70;;;9.82;;
36411;SDS011;22445;52.100;5.176;2022-10-31T01:35:56;14.25;;;10.05;;
36411;SDS011;22445;52.100;5.176;2022-10-31T01:38:21;13.70;;;11.30;;
36411;SDS011;22445;52.100;5.176;2022-10-31T01:40:48;14.63;;;10.63;;
36411;SDS011;22445;52.100;5.176;2022-10-31T01:43:13;16.67;;;11.63;;
36411;SDS011;22445;52.100;5.176;2022-10-31T01:45:40;21.02;;;9.57;;
36411;SDS011;22445;52.100;5.176;2022-10-31T01:48:10;12.38;;;10.35;;
36411;SDS011;22445;52.100;5.176;2022-10-31T01:50:39;11.95;;;8.70;;
36411;SDS011;22445;52.100;5.176;2022-10-31T01:53:05;13.88;;;10.43;;
36411;SDS011;22445;52.100;5.176;2022-10-31T01:55:32;13.52;;;10.70;;
36411;SDS011;22445;52.100;5.176;2022-10-31T01:58:22;12.18;;;9.25;;
36411;SDS011;22445;52.100;5.176;2022-10-31T02:00:49;7.75;;;7.05;;
36411;SDS011;22445;52.100;5.176;2022-10-31T02:03:16;9.00;;;8.02;;
36411;SDS011;22445;52.100;5.176;2022-10-31T02:05:42;6.40;;;5.80;;
36411;SDS011;22445;52.100;5.176;2022-10-31T02:08:10;15.82;;;5.60;;
36411;SDS011;22445;52.100;5.176;2022-10-31T02:10:39;4.43;;;4.03;;
36411;SDS011;22445;52.100;5.176;2022-10-31T02:13:06;4.43;;;4.03;;
36411;SDS011;22445;52.100;5.176;2022-10-31T02:15:32;5.03;;;4.00;;
36411;SDS011;22445;52.100;5.176;2022-10-31T02:17:58;4.28;;;3.88;;
36411;SDS011;22445;52.100;5.176;2022-10-31T02:20:24;6.75;;;5.78;;
36411;SDS011;22445;52.100;5.176;2022-10-31T02:50:19;3.53;;;3.08;;
36411;SDS011;22445;52.100;5.176;2022-10-31T02:52:52;3.83;;;3.42;;
36411;SDS011;22445;52.100;5.176;2022-10-31T02:58:19;16.52;;;7.68;;
36411;SDS011;22445;52.100;5.176;2022-10-31T03:10:04;10.30;;;7.93;;
36411;SDS011;22445;52.100;5.176;2022-10-31T03:12:54;12.65;;;8.35;;
36411;SDS011;22445;52.100;5.176;2022-10-31T03:15:43;16.58;;;9.93;;
36411;SDS011;22445;52.100;5.176;2022-10-31T03:18:12;17.88;;;10.73;;
36411;SDS011;22445;52.100;5.176;2022-10-31T03:20:41;16.50;;;9.73;;
36411;SDS011;22445;52.100;5.176;2022-10-31T03:23:19;17.02;;;12.50;;
36411;SDS011;22445;52.100;5.176;2022-10-31T03:25:47;14.93;;;11.27;;
36411;SDS011;22445;52.100;5.176;2022-10-31T03:28:13;18.00;;;12.57;;
36411;SDS011;22445;52.100;5.176;2022-10-31T03:30:41;18.75;;;14.65;;
36411;SDS011;22445;52.100;5.176;2022-10-31T03:33:09;24.15;;;14.38;;
36411;SDS011;22445;52.100;5.176;2022-10-31T03:35:38;22.58;;;13.88;;
36411;SDS011;22445;52.100;5.176;2022-10-31T03:38:06;14.43;;;12.57;;
36411;SDS011;22445;52.100;5.176;2022-10-31T03:40:32;26.15;;;16.52;;
36411;SDS011;22445;52.100;5.176;2022-10-31T03:43:00;25.40;;;17.25;;
36411;SDS011;22445;52.100;5.176;2022-10-31T03:45:32;27.00;;;17.85;;
36411;SDS011;22445;52.100;5.176;2022-10-31T03:48:01;23.77;;;16.63;;
36411;SDS011;22445;52.100;5.176;2022-10-31T03:50:28;30.33;;;18.73;;
36411;SDS011;22445;52.100;5.176;2022-10-31T03:53:06;22.90;;;16.48;;
36411;SDS011;22445;52.100;5.176;2022-10-31T03:56:09;21.20;;;16.15;;
36411;SDS011;22445;52.100;5.176;2022-10-31T03:58:35;24.30;;;16.27;;
36411;SDS011;22445;52.100;5.176;2022-10-31T04:01:04;27.83;;;17.95;;
36411;SDS011;22445;52.100;5.176;2022-10-31T04:03:32;28.98;;;18.30;;
36411;SDS011;22445;52.100;5.176;2022-10-31T04:05:59;29.20;;;21.02;;
36411;SDS011;22445;52.100;5.176;2022-10-31T04:08:29;25.83;;;16.58;;
36411;SDS011;22445;52.100;5.176;2022-10-31T04:10:56;24.98;;;17.00;;
36411;SDS011;22445;52.100;5.176;2022-10-31T04:13:24;28.10;;;18.38;;
36411;SDS011;22445;52.100;5.176;2022-10-31T04:15:53;27.63;;;19.33;;
36411;SDS011;22445;52.100;5.176;2022-10-31T04:18:20;28.02;;;18.77;;
36411;SDS011;22445;52.100;5.176;2022-10-31T04:20:47;29.98;;;19.65;;
36411;SDS011;22445;52.100;5.176;2022-10-31T04:23:20;29.90;;;19.70;;
36411;SDS011;22445;52.100;5.176;2022-10-31T04:25:48;16.63;;;12.55;;
36411;SDS011;22445;52.100;5.176;2022-10-31T04:28:14;22.92;;;16.33;;
36411;SDS011;22445;52.100;5.176;2022-10-31T04:30:39;24.35;;;18.10;;
36411;SDS011;22445;52.100;5.176;2022-10-31T04:33:05;46.47;;;17.77;;
36411;SDS011;22445;52.100;5.176;2022-10-31T04:35:30;19.20;;;14.70;;
36411;SDS011;22445;52.100;5.176;2022-10-31T04:37:56;25.23;;;17.00;;
36411;SDS011;22445;52.100;5.176;2022-10-31T04:40:21;26.88;;;17.35;;
36411;SDS011;22445;52.100;5.176;2022-10-31T04:42:47;24.10;;;15.73;;
36411;SDS011;22445;52.100;5.176;2022-10-31T04:45:12;29.15;;;19.95;;
36411;SDS011;22445;52.100;5.176;2022-10-31T04:47:38;27.45;;;17.75;;
36411;SDS011;22445;52.100;5.176;2022-10-31T04:50:03;28.58;;;17.08;;
36411;SDS011;22445;52.100;5.176;2022-10-31T04:52:29;25.05;;;16.45;;
36411;SDS011;22445;52.100;5.176;2022-10-31T04:54:55;27.60;;;17.20;;
36411;SDS011;22445;52.100;5.176;2022-10-31T04:57:20;31.83;;;19.30;;
36411;SDS011;22445;52.100;5.176;2022-10-31T04:59:46;24.73;;;17.63;;
36411;SDS011;22445;52.100;5.176;2022-10-31T05:02:11;17.52;;;13.77;;
36411;SDS011;22445;52.100;5.176;2022-10-31T05:04:37;27.10;;;18.67;;
36411;SDS011;22445;52.100;5.176;2022-10-31T05:07:02;31.58;;;19.58;;
36411;SDS011;22445;52.100;5.176;2022-10-31T05:09:28;28.95;;;19.40;;
36411;SDS011;22445;52.100;5.176;2022-10-31T05:11:53;34.47;;;20.92;;
36411;SDS011;22445;52.100;5.176;2022-10-31T05:14:18;15.15;;;12.10;;
36411;SDS011;22445;52.100;5.176;2022-10-31T05:16:44;24.85;;;17.42;;
36411;SDS011;22445;52.100;5.176;2022-10-31T05:19:09;28.13;;;17.70;;
36411;SDS011;22445;52.100;5.176;2022-10-31T05:21:35;31.05;;;19.50;;
36411;SDS011;22445;52.100;5.176;2022-10-31T05:24:00;20.80;;;15.20;;
36411;SDS011;22445;52.100;5.176;2022-10-31T05:26:26;24.13;;;16.60;;
36411;SDS011;22445;52.100;5.176;2022-10-31T05:28:51;15.18;;;12.75;;
36411;SDS011;22445;52.100;5.176;2022-10-31T05:31:17;14.90;;;12.30;;
36411;SDS011;22445;52.100;5.176;2022-10-31T05:33:42;44.47;;;14.43;;
36411;SDS011;22445;52.100;5.176;2022-10-31T05:36:08;13.55;;;11.73;;
36411;SDS011;22445;52.100;5.176;2022-10-31T05:38:33;12.82;;;11.50;;
36411;SDS011;22445;52.100;5.176;2022-10-31T05:40:59;46.78;;;15.43;;
36411;SDS011;22445;52.100;5.176;2022-10-31T05:43:27;13.40;;;11.77;;
36411;SDS011;22445;52.100;5.176;2022-10-31T05:45:54;18.02;;;14.55;;
36411;SDS011;22445;52.100;5.176;2022-10-31T05:48:20;23.88;;;16.25;;
36411;SDS011;22445;52.100;5.176;2022-10-31T05:50:47;36.25;;;24.90;;
36411;SDS011;22445;52.100;5.176;2022-10-31T05:53:13;15.00;;;11.13;;
36411;SDS011;22445;52.100;5.176;2022-10-31T05:55:39;13.05;;;8.77;;
36411;SDS011;22445;52.100;5.176;2022-10-31T05:58:08;8.50;;;7.60;;
36411;SDS011;22445;52.100;5.176;2022-10-31T06:00:34;17.58;;;13.00;;
36411;SDS011;22445;52.100;5.176;2022-10-31T06:03:01;25.42;;;15.63;;
36411;SDS011;22445;52.100;5.176;2022-10-31T06:05:27;27.95;;;17.23;;
36411;SDS011;22445;52.100;5.176;2022-10-31T06:07:54;37.97;;;19.85;;
36411;SDS011;22445;52.100;5.176;2022-10-31T06:10:19;21.00;;;14.90;;
36411;SDS011;22445;52.100;5.176;2022-10-31T06:12:46;27.58;;;18.80;;
36411;SDS011;22445;52.100;5.176;2022-10-31T06:15:12;31.10;;;20.10;;
36411;SDS011;22445;52.100;5.176;2022-10-31T06:17:38;31.48;;;21.70;;
36411;SDS011;22445;52.100;5.176;2022-10-31T06:20:03;119.30;;;28.88;;
36411;SDS011;22445;52.100;5.176;2022-10-31T06:22:30;64.50;;;26.33;;
36411;SDS011;22445;52.100;5.176;2022-10-31T06:24:55;43.92;;;27.58;;
36411;SDS011;22445;52.100;5.176;2022-10-31T06:27:20;107.05;;;30.67;;
36411;SDS011;22445;52.100;5.176;2022-10-31T06:29:46;51.33;;;30.33;;
36411;SDS011;22445;52.100;5.176;2022-10-31T06:32:12;92.55;;;30.90;;
36411;SDS011;22445;52.100;5.176;2022-10-31T06:34:38;60.25;;;29.48;;
36411;SDS011;22445;52.100;5.176;2022-10-31T06:37:05;42.22;;;25.55;;
36411;SDS011;22445;52.100;5.176;2022-10-31T06:39:32;42.85;;;27.17;;
36411;SDS011;22445;52.100;5.176;2022-10-31T06:41:57;44.40;;;29.02;;
36411;SDS011;22445;52.100;5.176;2022-10-31T06:44:23;57.10;;;30.63;;
36411;SDS011;22445;52.100;5.176;2022-10-31T06:46:48;51.75;;;32.85;;
36411;SDS011;22445;52.100;5.176;2022-10-31T06:49:14;53.35;;;31.67;;
36411;SDS011;22445;52.100;5.176;2022-10-31T06:51:39;52.83;;;31.92;;
36411;SDS011;22445;52.100;5.176;2022-10-31T06:54:05;52.70;;;31.60;;
36411;SDS011;22445;52.100;5.176;2022-10-31T06:56:30;67.10;;;34.85;;
36411;SDS011;22445;52.100;5.176;2022-10-31T06:58:56;59.88;;;33.97;;
36411;SDS011;22445;52.100;5.176;2022-10-31T07:01:21;56.53;;;35.35;;
36411;SDS011;22445;52.100;5.176;2022-10-31T07:03:47;55.03;;;35.55;;
36411;SDS011;22445;52.100;5.176;2022-10-31T07:06:12;102.25;;;36.38;;
36411;SDS011;22445;52.100;5.176;2022-10-31T07:08:38;57.35;;;34.85;;
36411;SDS011;22445;52.100;5.176;2022-10-31T07:11:03;61.95;;;37.00;;
36411;SDS011;22445;52.100;5.176;2022-10-31T07:13:29;61.85;;;36.97;;
36411;SDS011;22445;52.100;5.176;2022-10-31T07:15:58;80.75;;;36.38;;
36411;SDS011;22445;52.100;5.176;2022-10-31T07:18:25;102.78;;;37.50;;
36411;SDS011;22445;52.100;5.176;2022-10-31T07:20:51;154.75;;;42.63;;
36411;SDS011;22445;52.100;5.176;2022-10-31T07:23:17;113.22;;;40.83;;
36411;SDS011;22445;52.100;5.176;2022-10-31T07:25:43;92.07;;;39.90;;
36411;SDS011;22445;52.100;5.176;2022-10-31T07:28:08;77.47;;;37.90;;
36411;SDS011;22445;52.100;5.176;2022-10-31T07:30:34;71.30;;;39.45;;
36411;SDS011;22445;52.100;5.176;2022-10-31T07:33:00;79.00;;;38.70;;
36411;SDS011;22445;52.100;5.176;2022-10-31T07:35:27;100.05;;;42.17;;
36411;SDS011;22445;52.100;5.176;2022-10-31T07:37:53;88.05;;;41.17;;
36411;SDS011;22445;52.100;5.176;2022-10-31T07:40:20;92.38;;;42.80;;
36411;SDS011;22445;52.100;5.176;2022-10-31T07:42:46;114.30;;;44.83;;
36411;SDS011;22445;52.100;5.176;2022-10-31T07:45:13;83.63;;;42.70;;
36411;SDS011;22445;52.100;5.176;2022-10-31T07:47:44;85.85;;;46.28;;
36411;SDS011;22445;52.100;5.176;2022-10-31T07:50:12;100.63;;;48.90;;
36411;SDS011;22445;52.100;5.176;2022-10-31T07:52:39;100.93;;;50.92;;
36411;SDS011;22445;52.100;5.176;2022-10-31T07:55:05;104.55;;;54.03;;
36411;SDS011;22445;52.100;5.176;2022-10-31T07:57:31;112.50;;;56.50;;
36411;SDS011;22445;52.100;5.176;2022-10-31T07:59:56;88.13;;;51.05;;
36411;SDS011;22445;52.100;5.176;2022-10-31T08:02:23;82.07;;;46.45;;
36411;SDS011;22445;52.100;5.176;2022-10-31T08:04:49;75.25;;;46.40;;
36411;SDS011;22445;52.100;5.176;2022-10-31T08:07:15;85.72;;;48.75;;
36411;SDS011;22445;52.100;5.176;2022-10-31T08:09:40;80.15;;;46.20;;
36411;SDS011;22445;52.100;5.176;2022-10-31T08:12:06;66.45;;;41.28;;
36411;SDS011;22445;52.100;5.176;2022-10-31T08:14:31;51.42;;;34.83;;
36411;SDS011;22445;52.100;5.176;2022-10-31T08:16:57;46.15;;;30.48;;
36411;SDS011;22445;52.100;5.176;2022-10-31T08:19:22;32.58;;;25.52;;
36411;SDS011;22445;52.100;5.176;2022-10-31T08:21:51;30.70;;;22.55;;
36411;SDS011;22445;52.100;5.176;2022-10-31T08:24:17;24.65;;;18.48;;
36411;SDS011;22445;52.100;5.176;2022-10-31T08:26:43;20.13;;;17.20;;
36411;SDS011;22445;52.100;5.176;2022-10-31T08:29:09;18.67;;;15.90;;
36411;SDS011;22445;52.100;5.176;2022-10-31T08:31:35;18.45;;;14.90;;
36411;SDS011;22445;52.100;5.176;2022-10-31T08:34:00;19.35;;;15.57;;
36411;SDS011;22445;52.100;5.176;2022-10-31T08:36:26;20.95;;;15.13;;
36411;SDS011;22445;52.100;5.176;2022-10-31T08:38:52;18.77;;;15.18;;
36411;SDS011;22445;52.100;5.176;2022-10-31T08:41:17;18.30;;;15.95;;
36411;SDS011;22445;52.100;5.176;2022-10-31T08:43:43;24.35;;;18.40;;
36411;SDS011;22445;52.100;5.176;2022-10-31T08:46:08;23.20;;;17.58;;
36411;SDS011;22445;52.100;5.176;2022-10-31T08:48:34;22.40;;;17.60;;
36411;SDS011;22445;52.100;5.176;2022-10-31T08:51:00;25.48;;;18.02;;
36411;SDS011;22445;52.100;5.176;2022-10-31T08:53:25;24.75;;;18.33;;
36411;SDS011;22445;52.100;5.176;2022-10-31T08:55:53;21.70;;;17.85;;
36411;SDS011;22445;52.100;5.176;2022-10-31T08:58:22;24.17;;;18.15;;
36411;SDS011;22445;52.100;5.176;2022-10-31T09:00:49;23.60;;;17.70;;
36411;SDS011;22445;52.100;5.176;2022-10-31T09:03:17;23.60;;;17.45;;
36411;SDS011;22445;52.100;5.176;2022-10-31T09:06:03;20.95;;;17.10;;
36411;SDS011;22445;52.100;5.176;2022-10-31T09:08:33;20.77;;;16.80;;
36411;SDS011;22445;52.100;5.176;2022-10-31T09:11:00;19.00;;;15.77;;
36411;SDS011;22445;52.100;5.176;2022-10-31T09:13:26;25.05;;;17.33;;
36411;SDS011;22445;52.100;5.176;2022-10-31T09:15:52;20.05;;;16.30;;
36411;SDS011;22445;52.100;5.176;2022-10-31T09:18:18;19.45;;;15.32;;
36411;SDS011;22445;52.100;5.176;2022-10-31T09:20:45;17.05;;;14.27;;
36411;SDS011;22445;52.100;5.176;2022-10-31T09:23:15;15.48;;;13.82;;
36411;SDS011;22445;52.100;5.176;2022-10-31T09:25:42;17.23;;;13.50;;
36411;SDS011;22445;52.100;5.176;2022-10-31T09:28:11;19.35;;;13.75;;
36411;SDS011;22445;52.100;5.176;2022-10-31T09:30:38;17.35;;;14.82;;
36411;SDS011;22445;52.100;5.176;2022-10-31T09:33:06;19.17;;;14.82;;
36411;SDS011;22445;52.100;5.176;2022-10-31T09:35:34;19.02;;;15.35;;
36411;SDS011;22445;52.100;5.176;2022-10-31T09:38:01;20.70;;;16.08;;
36411;SDS011;22445;52.100;5.176;2022-10-31T09:40:37;19.38;;;15.75;;
36411;SDS011;22445;52.100;5.176;2022-10-31T09:46:36;20.02;;;17.13;;
36411;SDS011;22445;52.100;5.176;2022-10-31T09:52:32;23.50;;;16.02;;
36411;SDS011;22445;52.100;5.176;2022-10-31T09:55:22;21.75;;;17.42;;
36411;SDS011;22445;52.100;5.176;2022-10-31T09:58:16;21.73;;;16.08;;
36411;SDS011;22445;52.100;5.176;2022-10-31T10:00:45;25.23;;;18.00;;
36411;SDS011;22445;52.100;5.176;2022-10-31T10:08:54;19.95;;;16.85;;
36411;SDS011;22445;52.100;5.176;2022-10-31T10:11:27;19.30;;;15.73;;
36411;SDS011;22445;52.100;5.176;2022-10-31T10:20:18;20.27;;;16.10;;
36411;SDS011;22445;52.100;5.176;2022-10-31T10:26:13;15.18;;;13.02;;
36411;SDS011;22445;52.100;5.176;2022-10-31T10:28:43;20.02;;;13.82;;
36411;SDS011;22445;52.100;5.176;2022-10-31T10:31:16;18.60;;;13.38;;
36411;SDS011;22445;52.100;5.176;2022-10-31T10:39:27;15.48;;;13.88;;
36411;SDS011;22445;52.100;5.176;2022-10-31T10:41:55;18.88;;;13.93;;
36411;SDS011;22445;52.100;5.176;2022-10-31T10:44:45;15.57;;;13.20;;
36411;SDS011;22445;52.100;5.176;2022-10-31T10:47:52;18.85;;;13.63;;
36411;SDS011;22445;52.100;5.176;2022-10-31T10:50:27;14.73;;;12.57;;
36411;SDS011;22445;52.100;5.176;2022-10-31T10:53:15;13.98;;;12.52;;
36411;SDS011;22445;52.100;5.176;2022-10-31T10:59:16;15.35;;;12.20;;
36411;SDS011;22445;52.100;5.176;2022-10-31T11:01:43;14.35;;;12.18;;
36411;SDS011;22445;52.100;5.176;2022-10-31T11:07:10;14.73;;;13.13;;
36411;SDS011;22445;52.100;5.176;2022-10-31T11:09:37;15.13;;;11.13;;
36411;SDS011;22445;52.100;5.176;2022-10-31T11:12:07;14.05;;;11.93;;
36411;SDS011;22445;52.100;5.176;2022-10-31T11:14:42;16.00;;;12.40;;
36411;SDS011;22445;52.100;5.176;2022-10-31T11:17:20;14.68;;;12.05;;
36411;SDS011;22445;52.100;5.176;2022-10-31T11:23:18;16.92;;;13.55;;
36411;SDS011;22445;52.100;5.176;2022-10-31T11:25:47;21.58;;;14.07;;
36411;SDS011;22445;52.100;5.176;2022-10-31T11:28:15;18.83;;;15.00;;
36411;SDS011;22445;52.100;5.176;2022-10-31T11:33:34;18.15;;;15.05;;
36411;SDS011;22445;52.100;5.176;2022-10-31T11:36:30;19.00;;;15.63;;
36411;SDS011;22445;52.100;5.176;2022-10-31T11:38:57;23.33;;;16.85;;
36411;SDS011;22445;52.100;5.176;2022-10-31T11:41:28;28.38;;;17.92;;
36411;SDS011;22445;52.100;5.176;2022-10-31T11:44:17;20.10;;;16.92;;
36411;SDS011;22445;52.100;5.176;2022-10-31T11:46:54;24.67;;;17.05;;
36411;SDS011;22445;52.100;5.176;2022-10-31T11:49:34;30.88;;;19.63;;
36411;SDS011;22445;52.100;5.176;2022-10-31T11:52:04;26.38;;;19.05;;
36411;SDS011;22445;52.100;5.176;2022-10-31T11:54:38;27.15;;;18.23;;
36411;SDS011;22445;52.100;5.176;2022-10-31T11:57:59;29.20;;;18.20;;
36411;SDS011;22445;52.100;5.176;2022-10-31T12:00:25;27.02;;;20.38;;
36411;SDS011;22445;52.100;5.176;2022-10-31T12:06:19;28.30;;;20.77;;
36411;SDS011;22445;52.100;5.176;2022-10-31T12:08:46;24.63;;;19.20;;
36411;SDS011;22445;52.100;5.176;2022-10-31T12:14:17;26.10;;;21.15;;
36411;SDS011;22445;52.100;5.176;2022-10-31T12:17:14;29.45;;;22.20;;
36411;SDS011;22445;52.100;5.176;2022-10-31T12:25:46;31.63;;;20.95;;
36411;SDS011;22445;52.100;5.176;2022-10-31T12:28:48;30.23;;;20.35;;
36411;SDS011;22445;52.100;5.176;2022-10-31T12:31:40;31.85;;;21.88;;
36411;SDS011;22445;52.100;5.176;2022-10-31T12:54:47;29.17;;;21.38;;
36411;SDS011;22445;52.100;5.176;2022-10-31T12:57:29;33.63;;;21.90;;
36411;SDS011;22445;52.100;5.176;2022-10-31T13:03:38;31.90;;;21.58;;
36411;SDS011;22445;52.100;5.176;2022-10-31T13:06:32;26.08;;;20.00;;
36411;SDS011;22445;52.100;5.176;2022-10-31T13:09:01;27.98;;;20.20;;
36411;SDS011;22445;52.100;5.176;2022-10-31T13:11:32;27.33;;;20.05;;
36411;SDS011;22445;52.100;5.176;2022-10-31T13:14:16;29.55;;;19.50;;
36411;SDS011;22445;52.100;5.176;2022-10-31T13:16:49;26.88;;;19.05;;
36411;SDS011;22445;52.100;5.176;2022-10-31T13:22:23;26.77;;;19.58;;
36411;SDS011;22445;52.100;5.176;2022-10-31T13:30:33;26.20;;;19.27;;
36411;SDS011;22445;52.100;5.176;2022-10-31T13:33:03;21.40;;;16.85;;
36411;SDS011;22445;52.100;5.176;2022-10-31T13:35:48;31.30;;;19.63;;
36411;SDS011;22445;52.100;5.176;2022-10-31T13:39:02;26.65;;;20.17;;
36411;SDS011;22445;52.100;5.176;2022-10-31T13:41:51;24.90;;;18.88;;
36411;SDS011;22445;52.100;5.176;2022-10-31T13:44:26;34.88;;;22.13;;
36411;SDS011;22445;52.100;5.176;2022-10-31T13:46:53;28.10;;;18.80;;
36411;SDS011;22445;52.100;5.176;2022-10-31T13:49:23;27.40;;;18.33;;
36411;SDS011;22445;52.100;5.176;2022-10-31T13:51:50;29.15;;;18.92;;
36411;SDS011;22445;52.100;5.176;2022-10-31T13:54:20;31.88;;;20.08;;
36411;SDS011;22445;52.100;5.176;2022-10-31T13:56:48;28.35;;;19.02;;
36411;SDS011;22445;52.100;5.176;2022-10-31T13:59:22;28.27;;;18.88;;
36411;SDS011;22445;52.100;5.176;2022-10-31T14:01:49;27.85;;;19.20;;
36411;SDS011;22445;52.100;5.176;2022-10-31T14:07:12;30.90;;;20.70;;
36411;SDS011;22445;52.100;5.176;2022-10-31T14:18:03;33.17;;;21.98;;
36411;SDS011;22445;52.100;5.176;2022-10-31T14:29:29;30.73;;;21.20;;
36411;SDS011;22445;52.100;5.176;2022-10-31T14:37:58;32.83;;;21.08;;
36411;SDS011;22445;52.100;5.176;2022-10-31T14:43:59;35.67;;;21.67;;
36411;SDS011;22445;52.100;5.176;2022-10-31T14:46:54;30.88;;;20.05;;
36411;SDS011;22445;52.100;5.176;2022-10-31T14:53:12;31.27;;;20.67;;
36411;SDS011;22445;52.100;5.176;2022-10-31T14:55:59;27.60;;;19.23;;
36411;SDS011;22445;52.100;5.176;2022-10-31T14:58:43;28.58;;;19.67;;
36411;SDS011;22445;52.100;5.176;2022-10-31T15:01:29;34.15;;;21.38;;
36411;SDS011;22445;52.100;5.176;2022-10-31T15:04:29;28.08;;;20.98;;
36411;SDS011;22445;52.100;5.176;2022-10-31T15:06:50;31.27;;;21.50;;
36411;SDS011;22445;52.100;5.176;2022-10-31T15:09:24;33.17;;;21.00;;
36411;SDS011;22445;52.100;5.176;2022-10-31T15:11:58;32.13;;;20.17;;
36411;SDS011;22445;52.100;5.176;2022-10-31T15:14:26;32.08;;;20.58;;
36411;SDS011;22445;52.100;5.176;2022-10-31T15:16:58;32.33;;;20.85;;
36411;SDS011;22445;52.100;5.176;2022-10-31T15:19:27;34.72;;;22.52;;
36411;SDS011;22445;52.100;5.176;2022-10-31T15:21:54;33.80;;;21.42;;
36411;SDS011;22445;52.100;5.176;2022-10-31T15:24:22;30.17;;;21.40;;
36411;SDS011;22445;52.100;5.176;2022-10-31T15:26:50;34.05;;;21.58;;
36411;SDS011;22445;52.100;5.176;2022-10-31T15:29:21;35.72;;;22.75;;
36411;SDS011;22445;52.100;5.176;2022-10-31T15:31:59;34.28;;;20.92;;
36411;SDS011;22445;52.100;5.176;2022-10-31T15:34:42;36.38;;;22.15;;
36411;SDS011;22445;52.100;5.176;2022-10-31T15:37:15;31.48;;;21.50;;
36411;SDS011;22445;52.100;5.176;2022-10-31T15:39:43;34.42;;;21.23;;
36411;SDS011;22445;52.100;5.176;2022-10-31T15:42:20;32.28;;;21.40;;
36411;SDS011;22445;52.100;5.176;2022-10-31T15:44:52;32.65;;;20.00;;
36411;SDS011;22445;52.100;5.176;2022-10-31T15:47:22;31.75;;;20.52;;
36411;SDS011;22445;52.100;5.176;2022-10-31T15:49:53;36.28;;;22.38;;
36411;SDS011;22445;52.100;5.176;2022-10-31T15:54:50;32.47;;;21.05;;
36411;SDS011;22445;52.100;5.176;2022-10-31T15:57:21;40.38;;;20.80;;
36411;SDS011;22445;52.100;5.176;2022-10-31T15:59:48;35.30;;;21.65;;
36411;SDS011;22445;52.100;5.176;2022-10-31T16:02:17;31.55;;;19.83;;
36411;SDS011;22445;52.100;5.176;2022-10-31T16:04:52;32.33;;;20.52;;
36411;SDS011;22445;52.100;5.176;2022-10-31T16:07:20;35.20;;;21.25;;
36411;SDS011;22445;52.100;5.176;2022-10-31T16:09:53;31.65;;;20.73;;
36411;SDS011;22445;52.100;5.176;2022-10-31T16:12:21;35.28;;;21.67;;
36411;SDS011;22445;52.100;5.176;2022-10-31T16:14:47;36.03;;;22.23;;
36411;SDS011;22445;52.100;5.176;2022-10-31T16:17:13;31.75;;;21.30;;
36411;SDS011;22445;52.100;5.176;2022-10-31T16:20:00;35.80;;;21.50;;
36411;SDS011;22445;52.100;5.176;2022-10-31T16:22:29;35.05;;;21.30;;
36411;SDS011;22445;52.100;5.176;2022-10-31T16:25:04;39.97;;;21.27;;
36411;SDS011;22445;52.100;5.176;2022-10-31T16:27:38;36.70;;;21.30;;
36411;SDS011;22445;52.100;5.176;2022-10-31T16:33:27;37.80;;;21.83;;
36411;SDS011;22445;52.100;5.176;2022-10-31T16:38:58;37.78;;;22.85;;
36411;SDS011;22445;52.100;5.176;2022-10-31T16:41:24;36.60;;;22.05;;
36411;SDS011;22445;52.100;5.176;2022-10-31T16:43:50;36.40;;;20.80;;
36411;SDS011;22445;52.100;5.176;2022-10-31T16:46:25;36.63;;;22.70;;
36411;SDS011;22445;52.100;5.176;2022-10-31T16:48:52;33.88;;;22.33;;
36411;SDS011;22445;52.100;5.176;2022-10-31T16:51:18;43.08;;;22.73;;
36411;SDS011;22445;52.100;5.176;2022-10-31T16:53:44;42.40;;;23.17;;
36411;SDS011;22445;52.100;5.176;2022-10-31T16:56:17;33.83;;;22.33;;
36411;SDS011;22445;52.100;5.176;2022-10-31T16:58:45;39.13;;;22.15;;
36411;SDS011;22445;52.100;5.176;2022-10-31T17:01:11;36.80;;;22.52;;
36411;SDS011;22445;52.100;5.176;2022-10-31T17:03:37;43.58;;;22.77;;
36411;SDS011;22445;52.100;5.176;2022-10-31T17:06:03;34.08;;;21.73;;
36411;SDS011;22445;52.100;5.176;2022-10-31T17:08:29;41.40;;;23.02;;
36411;SDS011;22445;52.100;5.176;2022-10-31T17:10:55;38.53;;;22.88;;
36411;SDS011;22445;52.100;5.176;2022-10-31T17:13:22;40.72;;;21.98;;
36411;SDS011;22445;52.100;5.176;2022-10-31T17:15:51;40.50;;;23.42;;
36411;SDS011;22445;52.100;5.176;2022-10-31T17:18:18;36.13;;;21.95;;
36411;SDS011;22445;52.100;5.176;2022-10-31T17:20:44;39.85;;;22.58;;
36411;SDS011;22445;52.100;5.176;2022-10-31T17:23:11;42.00;;;22.50;;
36411;SDS011;22445;52.100;5.176;2022-10-31T17:25:37;37.58;;;21.92;;